Time;durP1;ratioP1;P1;durP2;ratioP2;P2;SDS_P1;SDS_P2;PMS_P1;PMS_P2;Temp;Humidity;BMP_temperature;BMP_pressure;BME280_temperature;BME280_humidity;BME280_pressure;Samples;Min_cycle;Max_cycle;Signal;HPM_P1;HPM_P2
2023/05/10 00:01:02;;;;;;;;;1.00;1.00;;;;;21.29;38.55;101314.44;110177;1260;20703;-41
2023/05/10 00:03:29;;;;;;;;;1.00;1.00;;;;;21.29;38.75;101314.78;110252;1257;18373;-41
2023/05/10 00:05:57;;;;;;;;;2.00;2.00;;;;;21.28;38.66;101307.20;110266;1265;18771;-40
2023/05/10 00:08:24;;;;;;;;;2.00;1.00;;;;;21.28;38.72;101309.34;110025;1251;20817;-41
2023/05/10 00:10:52;;;;;;;;;1.00;1.00;;;;;21.29;38.54;101307.52;110013;1251;22349;-41
2023/05/10 00:13:19;;;;;;;;;2.00;2.00;;;;;21.29;38.68;101308.05;110025;1266;22721;-42
2023/05/10 00:15:47;;;;;;;;;1.00;1.00;;;;;21.29;38.75;101307.71;110027;1266;19288;-42
2023/05/10 00:18:14;;;;;;;;;1.00;1.00;;;;;21.29;38.51;101308.26;110037;1266;18275;-41
2023/05/10 00:20:41;;;;;;;;;1.00;1.00;;;;;21.29;38.64;101307.30;110037;1254;20059;-41
2023/05/10 00:23:09;;;;;;;;;1.00;1.00;;;;;21.28;38.69;101305.37;110002;1254;21100;-42
2023/05/10 00:25:36;;;;;;;;;1.50;1.50;;;;;21.28;38.75;101302.45;110024;1266;18546;-42
2023/05/10 00:28:03;;;;;;;;;2.00;2.00;;;;;21.29;38.64;101303.50;110073;1266;18604;-42
2023/05/10 00:30:31;;;;;;;;;2.00;2.00;;;;;21.29;38.62;101304.04;109985;1266;20964;-42
2023/05/10 00:32:58;;;;;;;;;1.00;1.00;;;;;21.28;38.66;101300.11;110021;1254;19714;-41
2023/05/10 00:35:25;;;;;;;;;1.00;1.00;;;;;21.28;38.55;101298.81;110057;1254;20029;-40
2023/05/10 00:37:53;;;;;;;;;2.00;2.00;;;;;21.28;38.69;101302.33;110036;1251;22683;-40
2023/05/10 00:40:20;;;;;;;;;1.00;1.00;;;;;21.27;38.55;101306.72;110076;1254;19812;-41
2023/05/10 00:42:47;;;;;;;;;1.00;1.00;;;;;21.28;38.81;101303.21;110063;1251;20028;-41
2023/05/10 00:45:15;;;;;;;;;2.00;1.00;;;;;21.28;38.60;101297.45;109965;1254;134439;-41
2023/05/10 00:47:43;;;;;;;;;1.33;1.33;;;;;21.28;38.76;101295.63;110051;1254;19650;-41
2023/05/10 00:50:10;;;;;;;;;2.00;1.00;;;;;21.27;38.61;101294.19;110047;1266;18851;-44
2023/05/10 00:52:37;;;;;;;;;1.00;1.00;;;;;21.29;38.70;101299.15;110012;1251;22914;-41
2023/05/10 00:55:05;;;;;;;;;1.00;1.00;;;;;21.28;38.81;101292.13;110019;1259;18287;-40
2023/05/10 00:57:32;;;;;;;;;1.50;1.50;;;;;21.29;38.72;101291.00;110011;1266;18637;-41
2023/05/10 00:59:59;;;;;;;;;1.00;1.00;;;;;21.28;38.57;101286.31;110028;1251;22318;-41
2023/05/10 01:02:27;;;;;;;;;1.00;1.00;;;;;21.28;38.68;101286.30;110056;1266;18443;-42
2023/05/10 01:04:54;;;;;;;;;1.00;1.00;;;;;21.27;38.63;101286.61;110024;1266;20150;-43
2023/05/10 01:07:22;;;;;;;;;1.50;1.50;;;;;21.28;38.76;101284.50;110108;1257;19371;-43
2023/05/10 01:09:49;;;;;;;;;2.00;2.00;;;;;21.27;38.63;101281.70;110192;1251;19673;-42
2023/05/10 01:12:16;;;;;;;;;1.00;1.00;;;;;21.27;38.62;101278.52;110149;1251;21270;-42
2023/05/10 01:14:44;;;;;;;;;1.50;1.50;;;;;21.28;38.71;101274.15;110246;1250;20806;-42
2023/05/10 01:17:11;;;;;;;;;2.00;2.00;;;;;21.27;38.53;101272.36;110218;1257;23832;-42
2023/05/10 01:19:38;;;;;;;;;1.00;1.00;;;;;21.28;38.61;101273.39;110237;1266;18745;-42
2023/05/10 01:22:06;;;;;;;;;1.00;1.00;;;;;21.28;38.78;101271.39;110226;1266;20786;-42
2023/05/10 01:24:33;;;;;;;;;1.00;1.00;;;;;21.27;38.67;101268.56;110240;1265;18390;-44
2023/05/10 01:27:00;;;;;;;;;1.00;1.00;;;;;21.28;38.80;101265.05;110285;1260;18575;-42
2023/05/10 01:29:29;;;;;;;;;1.00;1.00;;;;;21.28;38.66;101263.80;110228;1266;20588;-44
2023/05/10 01:31:56;;;;;;;;;2.00;1.00;;;;;21.27;38.60;101268.72;110182;1251;19636;-43
2023/05/10 01:34:23;;;;;;;;;1.00;1.00;;;;;21.28;38.77;101261.25;110188;1265;18631;-43
2023/05/10 01:36:51;;;;;;;;;1.00;1.00;;;;;21.28;38.61;101261.81;110187;1251;20936;-42
2023/05/10 01:39:18;;;;;;;;;1.00;1.00;;;;;21.27;38.61;101258.77;110208;1260;20072;-43
2023/05/10 01:41:46;;;;;;;;;1.00;1.00;;;;;21.27;38.72;101257.64;110190;1250;20144;-42
2023/05/10 01:44:13;;;;;;;;;1.00;1.00;;;;;21.27;38.83;101253.52;110203;1259;20674;-42
2023/05/10 01:46:41;;;;;;;;;1.00;1.00;;;;;21.27;38.82;101258.64;110161;1250;19608;-42
2023/05/10 01:49:08;;;;;;;;;1.00;1.00;;;;;21.27;38.68;101257.54;110259;1251;20052;-42
2023/05/10 01:51:36;;;;;;;;;1.00;1.00;;;;;21.27;38.77;101256.04;110201;1251;20785;-43
2023/05/10 01:54:03;;;;;;;;;1.00;1.00;;;;;21.27;38.65;101252.59;110258;1250;19711;-42
2023/05/10 01:56:30;;;;;;;;;2.00;1.00;;;;;21.27;38.87;101252.98;110225;1259;19785;-43
2023/05/10 01:58:58;;;;;;;;;1.50;1.50;;;;;21.27;38.82;101249.33;110248;1265;19358;-41
2023/05/10 02:01:25;;;;;;;;;2.00;1.00;;;;;21.27;38.57;101250.57;110240;1251;19612;-41
2023/05/10 02:03:53;;;;;;;;;1.00;1.00;;;;;21.27;38.86;101246.09;110254;1260;20370;-42
2023/05/10 02:06:20;;;;;;;;;1.00;1.00;;;;;21.27;38.80;101246.98;110233;1251;20749;-41
2023/05/10 02:08:47;;;;;;;;;2.00;2.00;;;;;21.27;38.84;101240.64;110184;1251;22671;-42
2023/05/10 02:11:15;;;;;;;;;1.00;1.00;;;;;21.27;38.79;101237.20;110266;1251;20147;-41
2023/05/10 02:13:43;;;;;;;;;1.00;1.00;;;;;21.27;38.79;101236.27;110194;1251;20906;-41
2023/05/10 02:16:10;;;;;;;;;1.00;1.00;;;;;21.26;38.56;101237.23;110181;1265;18443;-41
2023/05/10 02:18:38;;;;;;;;;1.00;1.00;;;;;21.26;38.88;101234.95;110204;1265;22046;-42
2023/05/10 02:21:05;;;;;;;;;1.00;1.00;;;;;21.26;38.75;101233.45;110186;1260;20681;-42
2023/05/10 02:23:32;;;;;;;;;2.00;1.00;;;;;21.26;38.80;101232.36;110189;1265;18533;-42
2023/05/10 02:26:00;;;;;;;;;1.00;1.00;;;;;21.26;38.58;101232.87;110265;1265;18651;-40
2023/05/10 02:28:27;;;;;;;;;1.00;1.00;;;;;21.26;38.67;101228.20;110283;1260;20928;-41
2023/05/10 02:30:54;;;;;;;;;1.00;1.00;;;;;21.26;38.70;101228.38;110208;1259;22165;-42
2023/05/10 02:33:22;;;;;;;;;1.00;1.00;;;;;21.26;38.74;101227.77;110275;1265;18674;-41
2023/05/10 02:35:49;;;;;;;;;1.00;1.00;;;;;21.27;38.70;101227.92;110258;1266;21705;-42
2023/05/10 02:38:17;;;;;;;;;1.00;1.00;;;;;21.27;38.87;101224.86;110275;1251;19591;-42
2023/05/10 02:40:44;;;;;;;;;2.00;2.00;;;;;21.26;38.75;101226.73;110253;1250;20100;-41
2023/05/10 02:43:11;;;;;;;;;1.50;1.50;;;;;21.26;38.76;101227.77;110237;1265;19256;-41
2023/05/10 02:45:39;;;;;;;;;1.00;1.00;;;;;21.27;38.63;101226.13;110253;1265;18489;-42
2023/05/10 02:48:06;;;;;;;;;1.00;1.00;;;;;21.26;38.80;101225.23;110269;1265;18694;-42
2023/05/10 02:50:34;;;;;;;;;1.00;1.00;;;;;21.26;38.65;101228.52;110256;1265;22027;-43
2023/05/10 02:53:01;;;;;;;;;2.00;2.00;;;;;21.26;38.63;101228.00;110263;1250;18360;-44
2023/05/10 02:55:32;;;;;;;;;1.00;1.00;;;;;21.26;38.71;101226.91;110272;1265;18607;-42
2023/05/10 02:57:59;;;;;;;;;2.00;2.00;;;;;21.27;38.81;101229.56;110231;1251;22226;-41
2023/05/10 03:00:26;;;;;;;;;1.00;1.00;;;;;21.26;38.60;101230.72;110168;1265;18608;-42
2023/05/10 03:02:54;;;;;;;;;1.00;1.00;;;;;21.26;38.73;101230.17;110209;1257;19606;-41
2023/05/10 03:05:21;;;;;;;;;1.00;1.00;;;;;21.26;38.83;101230.14;109996;1266;19498;-40
2023/05/10 03:07:48;;;;;;;;;2.00;1.00;;;;;21.27;38.82;101231.91;109874;1266;19535;-42
2023/05/10 03:10:16;;;;;;;;;1.00;1.00;;;;;21.26;38.70;101229.98;109892;1266;18539;-41
2023/05/10 03:12:43;;;;;;;;;1.00;1.00;;;;;21.26;38.73;101228.51;110012;1251;23498;-41
2023/05/10 03:15:10;;;;;;;;;1.00;1.00;;;;;21.26;38.71;101228.79;109998;1266;18675;-41
2023/05/10 03:17:38;;;;;;;;;1.00;1.00;;;;;21.26;38.61;101228.75;109971;1266;22680;-41
2023/05/10 03:20:05;;;;;;;;;1.00;1.00;;;;;21.26;38.72;101230.15;110011;1252;21827;-41
2023/05/10 03:22:32;;;;;;;;;1.00;1.00;;;;;21.27;38.62;101233.92;110029;1260;19848;-40
2023/05/10 03:25:00;;;;;;;;;1.50;1.50;;;;;21.26;38.66;101235.98;110047;1266;18622;-43
2023/05/10 03:27:27;;;;;;;;;1.00;1.00;;;;;21.27;38.81;101232.84;110044;1253;20963;-41
2023/05/10 03:29:54;;;;;;;;;1.00;1.00;;;;;21.27;38.79;101235.18;110043;1253;19740;-40
2023/05/10 03:32:22;;;;;;;;;1.00;1.00;;;;;21.27;38.59;101231.74;110009;1260;22553;-40
2023/05/10 03:34:49;;;;;;;;;1.00;1.00;;;;;21.26;38.82;101230.39;109932;1260;20735;-41
2023/05/10 03:37:16;;;;;;;;;1.00;1.00;;;;;21.26;38.75;101232.91;109864;1253;20937;-42
2023/05/10 03:39:44;;;;;;;;;1.00;1.00;;;;;21.26;38.81;101228.41;109873;1254;20026;-42
2023/05/10 03:42:11;;;;;;;;;2.00;1.00;;;;;21.26;38.76;101227.11;109886;1266;20782;-41
2023/05/10 03:44:39;;;;;;;;;1.00;1.00;;;;;21.27;38.85;101227.21;109905;1253;19693;-42
2023/05/10 03:47:06;;;;;;;;;1.00;1.00;;;;;21.26;38.87;101226.16;109939;1253;20059;-45
2023/05/10 03:49:33;;;;;;;;;1.00;1.00;;;;;21.27;38.78;101229.73;110049;1254;20832;-42
2023/05/10 03:52:01;;;;;;;;;2.00;2.00;;;;;21.28;38.63;101225.63;109999;1251;23576;-41
2023/05/10 03:54:28;;;;;;;;;1.00;1.00;;;;;21.27;38.56;101226.02;110003;1266;19935;-41
2023/05/10 03:56:55;;;;;;;;;1.50;1.50;;;;;21.27;38.71;101224.04;110020;1254;22613;-42
2023/05/10 03:59:23;;;;;;;;;1.00;1.00;;;;;21.27;38.81;101222.41;110016;1260;19784;-41
2023/05/10 04:01:50;;;;;;;;;1.00;1.00;;;;;21.28;38.80;101220.88;109999;1266;22315;-41
2023/05/10 04:04:18;;;;;;;;;1.00;1.00;;;;;21.27;38.71;101216.92;110161;1250;20897;-40
2023/05/10 04:06:45;;;;;;;;;1.00;1.00;;;;;21.28;38.57;101222.34;110224;1265;18426;-41
2023/05/10 04:09:13;;;;;;;;;2.00;2.00;;;;;21.28;38.72;101220.91;110221;1265;22159;-40
2023/05/10 04:11:40;;;;;;;;;4.00;2.00;;;;;21.27;38.81;101220.94;110197;1265;20754;-41
2023/05/10 04:14:08;;;;;;;;;1.00;1.00;;;;;21.28;38.62;101221.58;110130;1265;19554;-42
2023/05/10 04:16:35;;;;;;;;;1.00;1.00;;;;;21.28;38.76;101225.05;110183;1265;18685;-42
2023/05/10 04:19:02;;;;;;;;;1.33;1.00;;;;;21.29;38.66;101221.20;110269;1250;20849;-42
2023/05/10 04:21:30;;;;;;;;;1.00;1.00;;;;;21.28;38.77;101223.23;110264;1251;19529;-42
2023/05/10 04:23:57;;;;;;;;;1.00;1.00;;;;;21.27;38.69;101218.38;110266;1251;19905;-43
2023/05/10 04:26:25;;;;;;;;;1.67;1.67;;;;;21.28;38.67;101217.09;110271;1251;19815;-42
2023/05/10 04:28:52;;;;;;;;;2.00;2.00;;;;;21.29;38.79;101218.59;110304;1251;19685;-42
2023/05/10 04:31:20;;;;;;;;;1.00;1.00;;;;;21.29;38.50;101216.06;110243;1250;20180;-42
2023/05/10 04:33:47;;;;;;;;;2.00;2.00;;;;;21.29;38.79;101215.18;110205;1249;22344;-43
2023/05/10 04:36:14;;;;;;;;;1.00;1.00;;;;;21.29;38.73;101216.05;110213;1251;19615;-43
2023/05/10 04:38:42;;;;;;;;;1.00;1.00;;;;;21.29;38.54;101218.23;110188;1250;22472;-42
2023/05/10 04:41:09;;;;;;;;;1.50;1.50;;;;;21.30;38.81;101216.50;110202;1251;19355;-42
2023/05/10 04:43:37;;;;;;;;;1.00;1.00;;;;;21.30;38.85;101215.64;110216;1250;19681;-42
2023/05/10 04:46:04;;;;;;;;;2.00;2.00;;;;;21.29;38.84;101213.67;110209;1260;19965;-43
2023/05/10 04:48:31;;;;;;;;;1.00;1.00;;;;;21.30;38.80;101213.80;110196;1265;19384;-46
2023/05/10 04:50:59;;;;;;;;;1.00;1.00;;;;;21.30;38.76;101212.47;110197;1249;19656;-42
2023/05/10 04:53:26;;;;;;;;;2.00;2.00;;;;;21.32;38.64;101217.74;110195;1251;21198;-41
2023/05/10 04:55:53;;;;;;;;;1.00;1.00;;;;;21.34;38.47;101218.40;110181;1265;19396;-43
2023/05/10 04:58:21;;;;;;;;;14.00;14.00;;;;;21.37;38.68;101218.51;110263;1265;19978;-42
2023/05/10 05:00:48;;;;;;;;;71.00;59.00;;;;;21.40;38.89;101221.20;110180;1251;20209;-42
2023/05/10 05:03:15;;;;;;;;;72.00;59.00;;;;;21.43;39.21;101220.15;110218;1251;20891;-40
2023/05/10 05:05:43;;;;;;;;;81.00;66.00;;;;;21.46;40.35;101217.59;110038;1251;23080;-41
2023/05/10 05:08:10;;;;;;;;;67.50;57.50;;;;;21.48;40.76;101219.09;110017;1251;20218;-42
2023/05/10 05:10:37;;;;;;;;;85.67;69.00;;;;;21.45;40.71;101220.52;110024;1266;19641;-42
2023/05/10 05:13:05;;;;;;;;;59.50;50.50;;;;;21.43;40.84;101217.92;110041;1251;20063;-42
2023/05/10 05:15:32;;;;;;;;;30.00;28.50;;;;;21.33;39.12;101225.04;110009;1266;18752;-41
2023/05/10 05:17:59;;;;;;;;;40.00;39.00;;;;;21.22;37.24;101219.58;109909;1251;22110;-42
2023/05/10 05:20:27;;;;;;;;;34.50;33.00;;;;;21.23;37.55;101222.72;109896;1259;19965;-42
2023/05/10 05:22:54;;;;;;;;;32.50;30.00;;;;;21.24;37.85;101226.43;110013;1260;20134;-43
2023/05/10 05:25:21;;;;;;;;;33.00;26.00;;;;;21.24;37.90;101222.29;110022;1266;19959;-41
2023/05/10 05:27:49;;;;;;;;;17.00;16.00;;;;;21.22;37.93;101223.70;110021;1260;20105;-42
2023/05/10 05:30:16;;;;;;;;;18.00;17.00;;;;;21.16;37.15;101224.38;110040;1251;20115;-42
2023/05/10 05:32:44;;;;;;;;;17.00;16.00;;;;;20.92;36.22;101224.66;110011;1250;22794;-41
2023/05/10 05:35:12;;;;;;;;;16.00;14.00;;;;;20.87;35.80;101220.60;110037;1251;20133;-42
2023/05/10 05:37:39;;;;;;;;;13.67;13.67;;;;;20.92;35.48;101223.50;110128;1259;19924;-42
2023/05/10 05:40:06;;;;;;;;;13.50;13.00;;;;;20.77;35.04;101219.36;110016;1251;22691;-41
2023/05/10 05:42:34;;;;;;;;;13.00;13.00;;;;;20.79;34.84;101227.45;110009;1266;18635;-41
2023/05/10 05:45:01;;;;;;;;;8.00;8.00;;;;;20.76;34.40;101219.33;109996;1251;21900;-42
2023/05/10 05:47:28;;;;;;;;;13.00;11.00;;;;;20.69;33.95;101216.58;110017;1266;19463;-42
2023/05/10 05:49:56;;;;;;;;;11.00;10.00;;;;;20.78;33.85;101214.74;110009;1251;19661;-48
2023/05/10 05:52:23;;;;;;;;;8.00;8.00;;;;;20.62;33.78;101215.95;110035;1266;18701;-43
2023/05/10 05:54:51;;;;;;;;;10.00;10.00;;;;;20.54;33.43;101213.36;110021;1251;20788;-42
2023/05/10 05:57:18;;;;;;;;;12.00;11.00;;;;;20.64;33.36;101210.45;109926;1266;18496;-43
2023/05/10 05:59:45;;;;;;;;;10.00;9.00;;;;;20.54;33.05;101212.07;110058;1266;18671;-43
2023/05/10 06:02:13;;;;;;;;;12.00;10.00;;;;;20.51;32.76;101219.55;110049;1266;19462;-43
2023/05/10 06:04:40;;;;;;;;;10.00;8.00;;;;;20.50;32.82;101214.30;110043;1251;20310;-42
2023/05/10 06:07:07;;;;;;;;;11.00;11.00;;;;;20.49;32.51;101213.13;110047;1260;21280;-43
2023/05/10 06:09:35;;;;;;;;;8.00;8.00;;;;;20.48;32.40;101214.14;109995;1266;19377;-42
2023/05/10 06:12:02;;;;;;;;;10.00;10.00;;;;;20.58;32.59;101216.14;110055;1260;19837;-42
2023/05/10 06:14:29;;;;;;;;;8.00;8.00;;;;;20.68;32.47;101216.75;110030;1266;22011;-43
2023/05/10 06:16:57;;;;;;;;;12.50;10.50;;;;;20.58;32.23;101220.15;110071;1266;19377;-42
2023/05/10 06:19:24;;;;;;;;;8.00;8.00;;;;;20.54;32.17;101218.34;110034;1266;18989;-43
2023/05/10 06:21:52;;;;;;;;;8.00;8.00;;;;;20.61;31.80;101220.36;110070;1260;19925;-38
2023/05/10 06:24:19;;;;;;;;;10.00;10.00;;;;;20.61;31.81;101216.77;110057;1266;22578;-41
2023/05/10 06:26:46;;;;;;;;;7.00;7.00;;;;;20.68;31.60;101215.05;110030;1266;18494;-42
2023/05/10 06:29:15;;;;;;;;;8.00;7.00;;;;;20.65;31.68;101212.12;110054;1266;19538;-43
2023/05/10 06:31:42;;;;;;;;;10.50;10.00;;;;;20.75;31.60;101214.16;110032;1251;20964;-41
2023/05/10 06:34:11;;;;;;;;;10.00;9.50;;;;;20.60;31.47;101208.36;110055;1251;19636;-41
2023/05/10 06:36:39;;;;;;;;;8.00;8.00;;;;;20.61;31.34;101209.27;110089;1266;18692;-42
2023/05/10 06:39:06;;;;;;;;;9.00;8.00;;;;;20.50;31.15;101205.89;110073;1251;20841;-42
2023/05/10 06:41:34;;;;;;;;;10.00;8.00;;;;;20.45;30.99;101208.92;110061;1260;21729;-40
2023/05/10 06:44:01;;;;;;;;;10.00;9.50;;;;;20.48;30.85;101207.96;110070;1266;18669;-44
2023/05/10 06:46:28;;;;;;;;;10.00;9.00;;;;;20.59;30.87;101204.80;110082;1250;22293;-41
2023/05/10 06:48:56;;;;;;;;;7.00;7.00;;;;;20.66;30.71;101211.47;110041;1251;19980;-41
2023/05/10 06:51:23;;;;;;;;;7.00;7.00;;;;;20.68;30.66;101219.23;110039;1254;19951;-41
2023/05/10 06:53:50;;;;;;;;;7.00;7.00;;;;;20.59;30.45;101211.14;110084;1260;20770;-40
2023/05/10 06:56:18;;;;;;;;;7.00;6.00;;;;;20.67;30.37;101211.77;110038;1251;22370;-41
2023/05/10 06:58:45;;;;;;;;;7.50;7.00;;;;;20.72;30.62;101211.69;110052;1254;20190;-41
2023/05/10 07:01:12;;;;;;;;;10.00;7.33;;;;;20.84;30.58;101214.05;110232;1257;19626;-40
2023/05/10 07:03:40;;;;;;;;;8.00;7.00;;;;;20.86;30.71;101218.95;110273;1265;19509;-41
2023/05/10 07:06:07;;;;;;;;;7.00;6.50;;;;;20.91;30.87;101215.16;110304;1260;18855;-42
2023/05/10 07:08:35;;;;;;;;;8.00;8.00;;;;;20.87;30.61;101214.70;110278;1251;20827;-42
2023/05/10 07:11:03;;;;;;;;;7.00;7.00;;;;;20.74;30.43;101213.46;110266;1260;19559;-42
2023/05/10 07:13:31;;;;;;;;;8.00;7.00;;;;;20.83;30.61;101208.41;110215;1265;18639;-41
2023/05/10 07:15:58;;;;;;;;;8.00;8.00;;;;;20.88;30.47;101214.85;110268;1251;20818;-42
2023/05/10 07:18:25;;;;;;;;;7.00;7.00;;;;;20.77;30.13;101211.02;110225;1265;18304;-42
2023/05/10 07:20:53;;;;;;;;;11.00;8.00;;;;;20.77;30.32;101213.03;110176;1265;18932;-43
2023/05/10 07:23:20;;;;;;;;;7.00;7.00;;;;;20.84;30.41;101206.63;110204;1260;20752;-42
2023/05/10 07:25:47;;;;;;;;;8.00;8.00;;;;;20.87;30.25;101203.91;110258;1265;20174;-45
2023/05/10 07:28:14;;;;;;;;;8.00;8.00;;;;;20.82;30.25;101210.66;110245;1259;21051;-42
2023/05/10 07:30:42;;;;;;;;;10.00;10.00;;;;;20.85;30.41;101209.11;110217;1251;20757;-41
2023/05/10 07:33:09;;;;;;;;;8.00;8.00;;;;;20.86;30.13;101210.61;110256;1250;19639;-42
2023/05/10 07:35:36;;;;;;;;;7.00;7.00;;;;;20.84;30.10;101217.35;110260;1260;19977;-42
2023/05/10 07:38:04;;;;;;;;;8.00;8.00;;;;;20.89;30.10;101212.46;110286;1260;22111;-42
2023/05/10 07:40:31;;;;;;;;;7.00;7.00;;;;;20.90;29.93;101209.73;110261;1251;19673;-42
2023/05/10 07:42:59;;;;;;;;;5.00;5.00;;;;;20.92;30.08;101206.16;110207;1251;20190;-41
2023/05/10 07:45:27;;;;;;;;;7.00;7.00;;;;;20.96;30.30;101207.30;110166;1251;19506;-42
2023/05/10 07:47:54;;;;;;;;;7.00;7.00;;;;;20.94;30.17;101203.75;110184;1265;18396;-41
2023/05/10 07:50:22;;;;;;;;;7.00;7.00;;;;;20.85;30.20;101204.20;110193;1251;22799;-41
2023/05/10 07:52:49;;;;;;;;;11.00;8.00;;;;;20.89;30.16;101200.64;110205;1265;19332;-42
2023/05/10 07:55:16;;;;;;;;;8.00;7.00;;;;;20.80;30.03;101203.17;110195;1259;19500;-44
2023/05/10 07:57:44;;;;;;;;;5.00;5.00;;;;;20.65;29.73;101201.08;110230;1251;20090;-45
2023/05/10 08:00:11;;;;;;;;;7.00;7.00;;;;;20.65;29.68;101203.19;110247;1265;19347;-42
2023/05/10 08:02:38;;;;;;;;;8.00;8.00;;;;;20.68;29.40;101208.91;110201;1249;19583;-42
2023/05/10 08:05:06;;;;;;;;;8.00;7.50;;;;;20.61;29.32;101208.05;110233;1266;18501;-41
2023/05/10 08:07:33;;;;;;;;;8.00;7.00;;;;;20.49;29.04;101212.76;110266;1250;20747;-42
2023/05/10 08:10:00;;;;;;;;;9.00;7.00;;;;;20.38;29.06;101194.77;110242;1251;19722;-41
2023/05/10 08:12:28;;;;;;;;;7.00;7.00;;;;;20.50;29.02;101200.75;110273;1254;20245;-42
2023/05/10 08:14:55;;;;;;;;;9.00;9.00;;;;;20.55;29.00;101200.13;110274;1251;20904;-42
2023/05/10 08:17:22;;;;;;;;;7.00;7.00;;;;;20.48;29.03;101200.64;110277;1265;18406;-41
2023/05/10 08:19:50;;;;;;;;;7.00;7.00;;;;;20.43;28.81;101191.96;110261;1265;18584;-41
2023/05/10 08:22:17;;;;;;;;;6.00;6.00;;;;;20.50;29.09;101191.05;110279;1251;22863;-41
2023/05/10 08:24:45;;;;;;;;;12.00;9.00;;;;;20.60;29.00;101200.70;110257;1260;19538;-42
2023/05/10 08:27:12;;;;;;;;;7.00;7.00;;;;;20.59;28.84;101195.90;110232;1251;20139;-42
2023/05/10 08:29:40;;;;;;;;;7.00;7.00;;;;;20.55;28.74;101204.15;110238;1265;19366;-42
2023/05/10 08:32:07;;;;;;;;;10.00;8.50;;;;;20.47;28.46;101189.30;110227;1251;23082;-43
2023/05/10 08:34:34;;;;;;;;;7.00;7.00;;;;;20.51;28.50;101181.49;110225;1265;18696;-42
2023/05/10 08:37:01;;;;;;;;;9.00;9.00;;;;;20.62;28.60;101199.38;110213;1249;20744;-41
2023/05/10 08:39:31;;;;;;;;;7.00;6.00;;;;;20.61;28.58;101196.73;110252;1260;19522;-42
2023/05/10 08:41:58;;;;;;;;;9.50;8.00;;;;;20.52;28.20;101197.77;110287;1265;19942;-43
2023/05/10 08:44:26;;;;;;;;;9.00;7.00;;;;;20.45;28.32;101198.11;110268;1265;20993;-42
2023/05/10 08:46:53;;;;;;;;;6.00;6.00;;;;;20.49;28.32;101189.84;110287;1249;19648;-42
2023/05/10 08:49:21;;;;;;;;;7.00;7.00;;;;;20.55;28.30;101193.59;110226;1265;19938;-42
2023/05/10 08:51:48;;;;;;;;;13.00;10.00;;;;;20.55;28.29;101190.83;110183;1260;20638;-43
2023/05/10 08:54:15;;;;;;;;;7.00;7.00;;;;;20.59;28.38;101190.65;110197;1251;21739;-43
2023/05/10 08:56:42;;;;;;;;;7.00;7.00;;;;;20.64;28.62;101189.00;110192;1249;18603;-43
2023/05/10 08:59:11;;;;;;;;;11.00;11.00;;;;;20.60;28.54;101191.60;110186;1251;20934;-41
2023/05/10 09:01:38;;;;;;;;;7.00;7.00;;;;;20.51;28.91;101184.96;110267;1251;19661;-42
2023/05/10 09:04:06;;;;;;;;;9.00;9.00;;;;;20.28;28.91;101186.39;110252;1251;19966;-42
2023/05/10 09:06:33;;;;;;;;;9.00;9.00;;;;;20.33;29.11;101194.66;110158;1265;20735;-41
2023/05/10 09:09:00;;;;;;;;;9.00;9.00;;;;;20.40;29.02;101188.11;110187;1251;19993;-41
2023/05/10 09:11:28;;;;;;;;;7.00;7.00;;;;;20.34;28.74;101193.33;110151;1265;19945;-42
2023/05/10 09:13:56;;;;;;;;;9.00;7.00;;;;;20.36;28.98;101185.65;110258;1259;20784;-42
2023/05/10 09:16:23;;;;;;;;;8.00;8.00;;;;;20.50;28.93;101183.05;110204;1251;19644;-42
2023/05/10 09:18:51;;;;;;;;;10.00;9.00;;;;;20.48;28.68;101183.99;110235;1251;21474;-41
2023/05/10 09:21:18;;;;;;;;;9.00;9.00;;;;;20.30;28.79;101187.33;110263;1251;21302;-41
2023/05/10 09:23:46;;;;;;;;;12.00;10.00;;;;;20.20;28.87;101188.23;110236;1265;20999;-41
2023/05/10 09:26:13;;;;;;;;;7.00;7.00;;;;;20.30;28.63;101173.69;110272;1251;20329;-41
2023/05/10 09:28:41;;;;;;;;;10.00;10.00;;;;;20.42;28.65;101177.52;110260;1253;19386;-41
2023/05/10 09:31:08;;;;;;;;;8.00;7.00;;;;;20.44;28.49;101180.91;110282;1251;23358;-41
2023/05/10 09:33:35;;;;;;;;;9.00;9.00;;;;;20.30;28.69;101174.64;110250;1251;20057;-42
2023/05/10 09:36:03;;;;;;;;;10.00;9.00;;;;;20.42;28.94;101168.64;110297;1251;20792;-42
2023/05/10 09:38:30;;;;;;;;;8.00;7.00;;;;;20.49;28.96;101174.40;110255;1265;18743;-41
2023/05/10 09:40:58;;;;;;;;;12.00;9.00;;;;;20.49;28.76;101170.59;110278;1265;18587;-42
2023/05/10 09:43:25;;;;;;;;;7.00;7.00;;;;;20.45;28.86;101163.05;110269;1266;23158;-42
2023/05/10 09:45:53;;;;;;;;;9.50;9.00;;;;;20.43;28.88;101178.15;110200;1251;20004;-41
2023/05/10 09:48:20;;;;;;;;;9.00;8.00;;;;;20.33;28.61;101174.30;110174;1251;20096;-41
2023/05/10 09:50:48;;;;;;;;;8.00;7.00;;;;;20.36;28.37;101166.39;110002;1260;20870;-43
2023/05/10 09:53:15;;;;;;;;;9.00;9.00;;;;;20.34;28.14;101169.71;110000;1266;18221;-41
2023/05/10 09:55:44;;;;;;;;;7.00;7.00;;;;;20.31;28.25;101170.77;109973;1254;20047;-41
2023/05/10 09:58:12;;;;;;;;;9.00;9.00;;;;;20.23;28.23;101167.60;110042;1251;20925;-41
2023/05/10 10:00:39;;;;;;;;;8.00;7.00;;;;;20.16;28.32;101165.28;110075;1260;19627;-42
2023/05/10 10:03:06;;;;;;;;;7.00;7.00;;;;;20.12;28.41;101159.54;110044;1253;20071;-41
2023/05/10 10:05:34;;;;;;;;;9.00;9.00;;;;;20.14;28.47;101156.92;110053;1259;19301;-42
2023/05/10 10:08:01;;;;;;;;;8.33;8.33;;;;;20.21;28.17;101153.63;110039;1266;18424;-39
2023/05/10 10:10:28;;;;;;;;;9.00;9.00;;;;;20.30;28.35;101156.16;110072;1266;20090;-41
2023/05/10 10:12:56;;;;;;;;;8.00;7.00;;;;;20.35;28.41;101152.20;110039;1266;20404;-41
2023/05/10 10:15:23;;;;;;;;;9.00;9.00;;;;;20.35;28.26;101156.15;110054;1254;20138;-42
2023/05/10 10:17:50;;;;;;;;;7.00;7.00;;;;;20.17;28.07;101154.13;110010;1266;18664;-42
2023/05/10 10:20:18;;;;;;;;;11.50;9.00;;;;;20.21;28.35;101147.85;109976;1266;21460;-42
2023/05/10 10:22:45;;;;;;;;;10.00;10.00;;;;;20.31;28.39;101136.98;110024;1254;19690;-42
2023/05/10 10:25:12;;;;;;;;;10.00;10.00;;;;;20.30;28.32;101133.13;109988;1253;22294;-41
2023/05/10 10:27:40;;;;;;;;;7.00;7.00;;;;;20.09;27.89;101151.46;109991;1251;19432;-45
2023/05/10 10:30:08;;;;;;;;;7.00;7.00;;;;;20.15;27.77;101146.67;110060;1251;19961;-42
2023/05/10 10:32:35;;;;;;;;;8.00;7.00;;;;;20.31;27.87;101139.11;110026;1266;18495;-41
2023/05/10 10:35:03;;;;;;;;;8.50;6.50;;;;;20.37;27.79;101134.36;110010;1254;20803;-41
2023/05/10 10:37:32;;;;;;;;;6.50;6.50;;;;;20.42;28.07;101135.54;110039;1266;18903;-42
2023/05/10 10:39:59;;;;;;;;;7.00;7.00;;;;;20.47;28.01;101134.30;110037;1266;18783;-41
2023/05/10 10:42:26;;;;;;;;;7.00;6.00;;;;;20.51;28.20;101125.43;110039;1266;19439;-42
2023/05/10 10:44:54;;;;;;;;;7.00;7.00;;;;;20.48;28.29;101137.84;110031;1254;19593;-42
2023/05/10 10:47:24;;;;;;;;;7.00;7.00;;;;;20.55;28.54;101134.56;110041;1254;20507;-41
2023/05/10 10:49:52;;;;;;;;;7.00;7.00;;;;;20.55;28.58;101130.98;110070;1266;19360;-42
2023/05/10 10:52:19;;;;;;;;;7.00;7.00;;;;;20.49;28.75;101122.29;110087;1266;18279;-42
2023/05/10 10:54:47;;;;;;;;;9.00;9.00;;;;;20.51;28.54;101139.14;110043;1259;18646;-42
2023/05/10 10:57:14;;;;;;;;;7.00;7.00;;;;;20.52;28.72;101133.73;110055;1254;20766;-41
2023/05/10 10:59:41;;;;;;;;;7.00;7.00;;;;;20.55;28.54;101134.05;110053;1254;19572;-42
2023/05/10 11:02:09;;;;;;;;;6.00;6.00;;;;;20.53;28.46;101133.34;110036;1251;20402;-44
2023/05/10 11:04:36;;;;;;;;;7.00;6.00;;;;;20.53;28.55;101133.17;110034;1260;22748;-41
2023/05/10 11:07:03;;;;;;;;;8.00;7.00;;;;;20.59;28.62;101121.66;110055;1260;19581;-41
2023/05/10 11:09:31;;;;;;;;;7.00;7.00;;;;;20.69;28.83;101128.66;110011;1251;20078;-41
2023/05/10 11:12:00;;;;;;;;;7.00;6.33;;;;;20.78;29.33;101115.75;110017;1254;20783;-41
2023/05/10 11:14:27;;;;;;;;;8.00;7.00;;;;;20.84;29.55;101112.59;110009;1266;18443;-46